createdAt,value
2023-03-28T00:00:27.991Z,4.20
2023-03-28T00:06:36.797Z,4.20
2023-03-28T00:09:11.749Z,4.20
2023-03-28T00:11:44.082Z,4.20
2023-03-28T00:14:28.630Z,4.20
2023-03-28T00:17:20.822Z,4.20
2023-03-28T00:20:07.914Z,4.80
2023-03-28T00:26:46.219Z,4.30
2023-03-28T00:29:44.107Z,4.10
2023-03-28T00:32:24.313Z,4.10
2023-03-28T00:35:10.732Z,4.10
2023-03-28T00:38:03.009Z,4.10
2023-03-28T00:40:40.082Z,4.10
2023-03-28T00:43:22.254Z,4.00
2023-03-28T00:46:06.340Z,4.00
2023-03-28T00:48:59.330Z,4.00
2023-03-28T00:51:49.622Z,4.00
2023-03-28T00:58:06.838Z,3.90
2023-03-28T01:00:35.503Z,3.90
2023-03-28T01:03:08.882Z,3.90
2023-03-28T01:05:48.564Z,3.90
2023-03-28T01:08:31.005Z,3.90
2023-03-28T01:11:00.136Z,3.80
2023-03-28T01:13:33.846Z,3.90
2023-03-28T01:16:04.580Z,3.80
2023-03-28T01:18:41.938Z,3.80
2023-03-28T01:25:53.822Z,3.80
2023-03-28T01:28:33.154Z,3.70
2023-03-28T01:31:39.204Z,3.70
2023-03-28T01:34:32.999Z,3.70
2023-03-28T01:37:23.833Z,3.70
2023-03-28T01:40:27.359Z,3.60
2023-03-28T01:43:36.907Z,3.60
2023-03-28T01:46:37.339Z,3.60
2023-03-28T01:49:09.413Z,3.50
2023-03-28T01:52:03.318Z,3.50
2023-03-28T01:55:17.516Z,3.50
2023-03-28T01:58:12.098Z,3.50
2023-03-28T02:01:13.928Z,3.40
2023-03-28T02:03:48.853Z,3.50
2023-03-28T02:06:21.376Z,3.50
2023-03-28T02:08:52.042Z,3.40
2023-03-28T02:11:19.560Z,3.40
2023-03-28T02:14:07.524Z,3.40
2023-03-28T02:16:42.342Z,3.40
2023-03-28T02:19:15.006Z,3.40
2023-03-28T02:21:57.641Z,3.30
2023-03-28T02:24:26.243Z,3.30
2023-03-28T02:26:56.622Z,3.30
2023-03-28T02:29:23.834Z,3.30
2023-03-28T02:31:51.939Z,3.30
2023-03-28T02:34:19.444Z,3.30
2023-03-28T02:37:18.434Z,3.30
2023-03-28T02:40:36.998Z,3.30
2023-03-28T02:43:47.674Z,3.30
2023-03-28T02:46:36.700Z,3.20
2023-03-28T02:49:49.532Z,3.20
2023-03-28T02:53:14.857Z,3.20
2023-03-28T02:55:57.475Z,3.20
2023-03-28T02:58:55.841Z,3.30
2023-03-28T03:01:29.140Z,3.20
2023-03-28T03:03:58.439Z,3.20
2023-03-28T03:06:45.928Z,3.10
2023-03-28T03:09:13.796Z,3.10
2023-03-28T03:11:47.351Z,3.20
2023-03-28T03:14:18.852Z,3.20
2023-03-28T03:16:48.986Z,3.10
2023-03-28T03:19:19.233Z,3.50
2023-03-28T03:21:46.925Z,3.10
2023-03-28T03:24:28.516Z,3.10
2023-03-28T03:26:56.069Z,3.10
2023-03-28T03:29:23.495Z,3.10
2023-03-28T03:31:58.074Z,3.10
2023-03-28T03:34:26.612Z,3.10
2023-03-28T03:36:54.901Z,3.10
2023-03-28T03:39:25.364Z,3.10
2023-03-28T03:41:53.060Z,3.10
2023-03-28T03:44:20.458Z,3.10
2023-03-28T03:46:48.256Z,3.10
2023-03-28T03:49:15.689Z,3.10
2023-03-28T03:51:48.018Z,3.10
2023-03-28T03:54:15.420Z,3.20
2023-03-28T03:56:43.110Z,3.10
2023-03-28T03:59:13.800Z,3.10
2023-03-28T04:01:45.180Z,3.10
2023-03-28T04:04:19.090Z,3.10
2023-03-28T04:06:46.452Z,3.10
2023-03-28T04:09:17.127Z,3.10
2023-03-28T04:11:49.019Z,3.10
2023-03-28T04:14:16.783Z,3.10
2023-03-28T04:16:45.165Z,3.10
2023-03-28T04:19:25.845Z,3.00
2023-03-28T04:21:57.541Z,3.00
2023-03-28T04:24:25.275Z,3.00
2023-03-28T04:26:56.399Z,3.00
2023-03-28T04:29:30.916Z,3.00
2023-03-28T04:32:01.099Z,3.00
2023-03-28T04:34:31.318Z,3.00
2023-03-28T04:37:03.943Z,3.00
2023-03-28T04:39:35.850Z,3.00
2023-03-28T04:42:05.757Z,3.00
2023-03-28T04:44:56.270Z,3.00
2023-03-28T04:47:26.904Z,3.00
2023-03-28T04:52:36.609Z,3.00
2023-03-28T04:55:04.830Z,3.00
2023-03-28T04:57:32.361Z,3.00
2023-03-28T04:59:59.656Z,3.00
2023-03-28T05:02:30.012Z,3.00
2023-03-28T05:04:57.401Z,3.00
2023-03-28T05:07:27.749Z,3.10
2023-03-28T05:09:58.672Z,3.10
2023-03-28T05:12:28.686Z,3.20
2023-03-28T05:15:08.706Z,3.10
2023-03-28T05:17:36.018Z,3.10
2023-03-28T05:23:00.620Z,3.10
2023-03-28T05:25:28.634Z,3.10
2023-03-28T05:28:06.669Z,3.10
2023-03-28T05:30:34.026Z,3.10
2023-03-28T05:33:01.968Z,3.10
2023-03-28T05:35:29.610Z,3.20
2023-03-28T05:37:58.010Z,3.10
2023-03-28T05:40:25.485Z,3.10
2023-03-28T05:42:53.185Z,3.20
2023-03-28T05:45:20.680Z,3.20
2023-03-28T05:47:52.137Z,3.20
2023-03-28T05:50:19.674Z,3.30
2023-03-28T05:52:53.811Z,3.40
2023-03-28T05:55:21.849Z,3.40
2023-03-28T06:01:04.881Z,3.60
2023-03-28T06:07:54.976Z,3.90
2023-03-28T06:10:42.999Z,4.10
2023-03-28T06:13:13.796Z,4.30
2023-03-28T06:15:44.316Z,4.50
2023-03-28T06:18:12.219Z,4.70
2023-03-28T06:20:45.516Z,5.00
2023-03-28T06:23:21.978Z,5.20
2023-03-28T06:25:57.225Z,5.80
2023-03-28T06:28:25.022Z,5.80
2023-03-28T06:30:52.528Z,6.10
2023-03-28T06:33:20.359Z,6.40
2023-03-28T06:35:48.305Z,6.80
2023-03-28T06:38:15.785Z,7.10
2023-03-28T06:40:43.993Z,7.50
2023-03-28T06:43:11.837Z,7.80
2023-03-28T06:45:40.852Z,8.20
2023-03-28T06:48:08.809Z,8.70
2023-03-28T06:50:36.263Z,9.10
2023-03-28T06:53:06.339Z,9.60
2023-03-28T06:55:45.100Z,10.10
2023-03-28T06:58:39.331Z,10.70
2023-03-28T07:04:26.411Z,12.00
2023-03-28T07:06:54.110Z,12.60
2023-03-28T07:09:21.505Z,13.00
2023-03-28T07:11:49.157Z,13.40
2023-03-28T07:14:18.913Z,13.70
2023-03-28T07:16:49.253Z,14.00
2023-03-28T07:19:16.733Z,14.30
2023-03-28T07:21:44.689Z,14.60
2023-03-28T07:24:12.125Z,14.90
2023-03-28T07:26:39.998Z,15.30
2023-03-28T07:29:07.967Z,15.80
2023-03-28T07:31:35.395Z,16.30
2023-03-28T07:34:02.848Z,16.80
2023-03-28T07:36:30.602Z,17.30
2023-03-28T07:38:57.786Z,17.80
2023-03-28T07:41:28.008Z,18.10
2023-03-28T07:43:58.389Z,18.50
2023-03-28T07:46:25.972Z,18.70
2023-03-28T07:49:02.191Z,18.90
2023-03-28T07:51:29.426Z,19.10
2023-03-28T07:53:57.010Z,19.20
2023-03-28T07:59:43.848Z,19.60
2023-03-28T08:02:16.164Z,19.80
2023-03-28T08:04:54.360Z,20.00
2023-03-28T08:07:34.451Z,20.20
2023-03-28T08:10:03.262Z,20.50
2023-03-28T08:12:34.327Z,20.80
2023-03-28T08:15:01.819Z,21.10
2023-03-28T08:17:32.848Z,21.50
2023-03-28T08:20:06.812Z,21.80
2023-03-28T08:22:40.380Z,22.10
2023-03-28T08:25:22.480Z,22.50
2023-03-28T08:28:11.838Z,22.80
2023-03-28T08:30:48.342Z,23.20
2023-03-28T08:33:15.953Z,23.50
2023-03-28T08:35:44.668Z,23.80
2023-03-28T08:38:12.214Z,24.00
2023-03-28T08:40:49.380Z,24.20
2023-03-28T08:43:48.943Z,24.30
2023-03-28T08:46:26.542Z,24.30
2023-03-28T08:48:56.019Z,24.30
2023-03-28T08:51:56.193Z,24.20
2023-03-28T08:54:50.536Z,24.10
2023-03-28T08:57:46.103Z,23.90
2023-03-28T09:00:37.659Z,23.80
2023-03-28T09:03:21.042Z,23.50
2023-03-28T09:07:04.172Z,23.30
2023-03-28T09:10:09.797Z,23.20
2023-03-28T09:13:20.496Z,22.90
2023-03-28T09:19:40.644Z,22.00
2023-03-28T09:22:47.642Z,21.50
2023-03-28T09:25:51.808Z,21.30
2023-03-28T09:28:52.365Z,21.20
2023-03-28T09:31:28.117Z,21.20
2023-03-28T09:33:59.226Z,21.20
2023-03-28T09:36:49.619Z,21.20
2023-03-28T09:40:09.005Z,21.20
2023-03-28T09:43:14.004Z,21.10
2023-03-28T09:46:22.803Z,21.00
2023-03-28T09:48:50.338Z,20.90
2023-03-28T09:51:20.554Z,20.90
2023-03-28T09:53:48.709Z,20.80
2023-03-28T09:56:33.562Z,20.80
2023-03-28T09:59:03.815Z,20.70
2023-03-28T10:01:46.285Z,20.60
2023-03-28T10:04:22.397Z,20.50
2023-03-28T10:06:49.646Z,20.40
2023-03-28T10:09:27.451Z,20.30
2023-03-28T10:12:09.163Z,20.10
2023-03-28T10:14:47.393Z,19.90
2023-03-28T10:17:26.306Z,19.80
2023-03-28T10:20:00.587Z,19.70
2023-03-28T10:22:35.677Z,19.60
2023-03-28T10:25:13.471Z,19.40
2023-03-28T10:27:40.770Z,19.30
2023-03-28T10:30:13.697Z,19.20
2023-03-28T10:32:41.843Z,19.10
2023-03-28T10:35:26.917Z,19.10
2023-03-28T10:38:03.915Z,19.10
2023-03-28T10:40:32.849Z,19.10
2023-03-28T10:43:00.365Z,19.10
2023-03-28T10:45:42.038Z,19.10
2023-03-28T10:48:25.941Z,19.30
2023-03-28T10:51:00.874Z,19.20
2023-03-28T10:54:03.170Z,19.10
2023-03-28T10:56:50.526Z,19.10
2023-03-28T10:59:55.077Z,19.20
2023-03-28T11:03:07.263Z,19.20
2023-03-28T11:05:54.891Z,19.30
2023-03-28T11:08:47.966Z,19.30
2023-03-28T11:11:48.475Z,19.30
2023-03-28T11:14:54.001Z,19.40
2023-03-28T11:17:53.018Z,19.60
2023-03-28T11:20:45.741Z,19.80
2023-03-28T11:23:54.106Z,20.00
2023-03-28T11:26:42.054Z,20.20
2023-03-28T11:29:43.585Z,20.40
2023-03-28T11:32:38.996Z,20.50
2023-03-28T11:35:49.938Z,20.50
2023-03-28T11:38:28.359Z,20.50
2023-03-28T11:41:21.260Z,20.60
2023-03-28T11:44:06.690Z,20.60
2023-03-28T11:46:42.866Z,20.70
2023-03-28T11:49:32.469Z,20.80
2023-03-28T11:52:09.739Z,20.90
2023-03-28T11:54:54.897Z,21.00
2023-03-28T11:57:39.539Z,21.00
2023-03-28T12:00:33.932Z,20.90
2023-03-28T12:03:27.715Z,20.80
2023-03-28T12:06:05.841Z,20.60
2023-03-28T12:08:41.750Z,20.50
2023-03-28T12:11:20.397Z,20.40
2023-03-28T12:14:12.103Z,20.50
2023-03-28T12:16:48.776Z,20.30
2023-03-28T12:19:51.010Z,19.90
2023-03-28T12:22:40.950Z,19.70
2023-03-28T12:25:37.718Z,19.40
2023-03-28T12:28:27.057Z,19.10
2023-03-28T12:31:16.300Z,18.90
2023-03-28T12:34:07.962Z,18.70
2023-03-28T12:36:49.072Z,18.70
2023-03-28T12:39:46.941Z,18.60
2023-03-28T12:42:21.063Z,18.60
2023-03-28T12:45:01.906Z,18.60
2023-03-28T12:47:38.653Z,18.60
2023-03-28T12:50:14.827Z,18.60
2023-03-28T12:52:45.348Z,18.50
2023-03-28T12:55:47.416Z,18.50
2023-03-28T12:58:34.971Z,18.40
2023-03-28T13:01:07.535Z,18.40
2023-03-28T13:03:56.011Z,18.40
2023-03-28T13:06:36.519Z,18.40
2023-03-28T13:09:20.886Z,18.50
2023-03-28T13:12:30.214Z,18.40
2023-03-28T13:15:21.678Z,18.40
2023-03-28T13:18:21.410Z,18.40
2023-03-28T13:20:51.924Z,18.30
2023-03-28T13:23:28.736Z,18.20
2023-03-28T13:26:02.687Z,18.20
2023-03-28T13:28:44.568Z,18.20
2023-03-28T13:31:21.589Z,18.20
2023-03-28T13:34:01.463Z,18.20
2023-03-28T13:36:35.498Z,18.20
2023-03-28T13:39:22.440Z,18.20
2023-03-28T13:41:49.615Z,18.20
2023-03-28T13:44:42.343Z,18.10
2023-03-28T13:47:20.514Z,18.00
2023-03-28T13:50:11.953Z,17.90
2023-03-28T13:52:42.433Z,17.80
2023-03-28T13:55:27.344Z,17.70
2023-03-28T13:58:08.347Z,17.70
2023-03-28T14:00:36.335Z,17.70
2023-03-28T14:03:13.610Z,17.60
2023-03-28T14:05:46.560Z,17.60
2023-03-28T14:08:13.638Z,17.50
2023-03-28T14:10:45.009Z,17.40
2023-03-28T14:13:28.934Z,17.40
2023-03-28T14:15:57.077Z,17.30
2023-03-28T14:18:46.290Z,17.20
2023-03-28T14:21:15.824Z,17.10
2023-03-28T14:24:25.615Z,17.00
2023-03-28T14:27:05.645Z,17.00
2023-03-28T14:29:32.841Z,16.90
2023-03-28T14:32:01.109Z,16.90
2023-03-28T14:34:35.351Z,16.90
2023-03-28T14:37:07.745Z,16.90
2023-03-28T14:39:39.176Z,16.90
2023-03-28T14:42:16.169Z,16.90
2023-03-28T14:44:55.350Z,16.80
2023-03-28T14:47:32.963Z,16.80
2023-03-28T14:50:02.244Z,16.90
2023-03-28T14:52:36.370Z,16.80
2023-03-28T14:55:04.929Z,16.80
2023-03-28T14:57:33.342Z,16.80
2023-03-28T15:00:01.019Z,16.80
2023-03-28T15:02:36.297Z,16.70
2023-03-28T15:05:09.018Z,16.70
2023-03-28T15:07:37.191Z,16.70
2023-03-28T15:10:06.552Z,16.70
2023-03-28T15:12:41.876Z,16.80
2023-03-28T15:15:30.615Z,16.60
2023-03-28T15:18:03.211Z,16.80
2023-03-28T15:20:34.981Z,16.80
2023-03-28T15:23:07.612Z,16.70
2023-03-28T15:25:35.795Z,16.80
2023-03-28T15:28:10.524Z,16.80
2023-03-28T15:30:43.642Z,16.80
2023-03-28T15:33:21.788Z,16.70
2023-03-28T15:35:49.214Z,16.70
2023-03-28T15:38:27.534Z,16.70
2023-03-28T15:41:09.309Z,16.60
2023-03-28T15:43:59.385Z,16.60
2023-03-28T15:46:32.762Z,16.50
2023-03-28T15:49:02.311Z,16.40
2023-03-28T15:51:31.466Z,16.30
2023-03-28T15:54:01.163Z,16.30
2023-03-28T15:56:33.948Z,16.20
2023-03-28T15:59:40.036Z,16.50
2023-03-28T16:02:28.534Z,16.10
2023-03-28T16:04:58.664Z,16.10
2023-03-28T16:07:26.978Z,16.10
2023-03-28T16:09:54.412Z,16.00
2023-03-28T16:12:25.008Z,15.90
2023-03-28T16:14:53.990Z,15.90
2023-03-28T16:17:29.743Z,15.80
2023-03-28T16:19:58.444Z,15.70
2023-03-28T16:22:27.436Z,15.60
2023-03-28T16:24:58.550Z,15.50
2023-03-28T16:27:26.904Z,15.50
2023-03-28T16:29:54.147Z,15.30
2023-03-28T16:32:23.928Z,15.20
2023-03-28T16:34:54.171Z,15.00
2023-03-28T16:37:22.048Z,14.90
2023-03-28T16:39:49.294Z,14.70
2023-03-28T16:42:16.828Z,14.60
2023-03-28T16:44:43.914Z,14.50
2023-03-28T16:47:11.238Z,14.40
2023-03-28T16:49:38.992Z,14.30
2023-03-28T16:52:07.566Z,14.20
2023-03-28T16:54:34.815Z,14.10
2023-03-28T16:57:02.762Z,14.00
2023-03-28T16:59:30.023Z,13.90
2023-03-28T17:01:57.336Z,13.80
2023-03-28T17:04:24.588Z,13.70
2023-03-28T17:06:52.854Z,13.60
2023-03-28T17:09:20.476Z,13.60
2023-03-28T17:11:47.231Z,13.50
2023-03-28T17:14:14.400Z,13.40
2023-03-28T17:16:46.104Z,13.30
2023-03-28T17:19:13.972Z,13.20
2023-03-28T17:21:41.328Z,13.10
2023-03-28T17:24:11.426Z,13.00
2023-03-28T17:26:38.396Z,12.90
2023-03-28T17:29:07.388Z,12.80
2023-03-28T17:31:34.687Z,12.80
2023-03-28T17:34:01.705Z,12.70
2023-03-28T17:36:29.692Z,12.70
2023-03-28T17:38:58.573Z,12.70
2023-03-28T17:41:27.603Z,12.70
2023-03-28T17:43:56.484Z,12.60
2023-03-28T17:46:24.620Z,12.60
2023-03-28T17:48:51.593Z,12.60
2023-03-28T17:51:19.090Z,12.60
2023-03-28T17:53:47.036Z,12.60
2023-03-28T17:56:16.132Z,12.60
2023-03-28T17:58:43.744Z,12.60
2023-03-28T18:01:14.614Z,12.50
2023-03-28T18:03:42.088Z,12.50
2023-03-28T18:06:09.780Z,12.40
2023-03-28T18:08:37.423Z,12.40
2023-03-28T18:11:13.813Z,12.30
2023-03-28T18:13:42.318Z,12.20
2023-03-28T18:16:13.792Z,12.00
2023-03-28T18:18:42.649Z,12.00
2023-03-28T18:21:12.804Z,11.90
2023-03-28T18:23:41.470Z,11.80
2023-03-28T18:26:09.258Z,11.70
2023-03-28T18:28:36.939Z,11.60
2023-03-28T18:31:12.753Z,11.60
2023-03-28T18:33:43.168Z,11.50
2023-03-28T18:36:13.104Z,11.40
2023-03-28T18:38:46.662Z,11.30
2023-03-28T18:41:14.402Z,11.20
2023-03-28T18:43:42.967Z,11.20
2023-03-28T18:48:40.440Z,10.90
2023-03-28T18:51:08.236Z,10.90
2023-03-28T18:53:40.009Z,10.70
2023-03-28T18:56:09.182Z,10.60
2023-03-28T18:58:37.488Z,10.50
2023-03-28T19:01:07.253Z,10.50
2023-03-28T19:03:43.396Z,10.40
2023-03-28T19:06:13.428Z,10.30
2023-03-28T19:08:40.579Z,10.20
2023-03-28T19:11:14.798Z,10.10
2023-03-28T19:13:43.028Z,10.00
2023-03-28T19:16:13.984Z,9.90
2023-03-28T19:18:44.162Z,9.90
2023-03-28T19:21:12.504Z,9.80
2023-03-28T19:23:40.748Z,9.80
2023-03-28T19:26:11.621Z,9.70
2023-03-28T19:28:39.583Z,9.70
2023-03-28T19:31:12.014Z,9.60
2023-03-28T19:33:43.668Z,9.60
2023-03-28T19:36:13.268Z,9.50
2023-03-28T19:38:42.300Z,9.50
2023-03-28T19:41:20.267Z,9.40
2023-03-28T19:43:48.930Z,9.40
2023-03-28T19:46:35.536Z,9.30
2023-03-28T19:49:09.282Z,9.20
2023-03-28T19:51:36.760Z,9.20
2023-03-28T19:54:04.951Z,9.20
2023-03-28T19:56:32.702Z,9.10
2023-03-28T19:59:00.866Z,9.00
2023-03-28T20:01:28.419Z,9.10
2023-03-28T20:03:56.509Z,9.00
2023-03-28T20:06:25.876Z,9.00
2023-03-28T20:08:53.694Z,9.00
2023-03-28T20:11:22.522Z,9.00
2023-03-28T20:13:50.034Z,8.90
2023-03-28T20:16:17.484Z,8.90
2023-03-28T20:18:48.461Z,8.80
2023-03-28T20:21:16.138Z,8.80
2023-03-28T20:23:44.083Z,8.70
2023-03-28T20:26:15.866Z,8.70
2023-03-28T20:28:52.431Z,8.60
2023-03-28T20:31:20.560Z,8.60
2023-03-28T20:33:48.082Z,8.50
2023-03-28T20:36:16.050Z,8.50
2023-03-28T20:38:44.073Z,8.50
2023-03-28T20:41:39.883Z,8.40
2023-03-28T20:44:09.158Z,8.50
2023-03-28T20:46:38.450Z,8.40
2023-03-28T20:49:06.507Z,8.40
2023-03-28T20:51:38.830Z,8.40
2023-03-28T20:54:06.885Z,8.40
2023-03-28T20:56:34.921Z,8.40
2023-03-28T20:59:06.759Z,8.30
2023-03-28T21:01:42.534Z,8.30
2023-03-28T21:04:12.863Z,8.30
2023-03-28T21:06:40.680Z,8.30
2023-03-28T21:09:12.431Z,8.30
2023-03-28T21:11:41.095Z,8.30
2023-03-28T21:14:13.627Z,8.20
2023-03-28T21:16:41.690Z,8.20
2023-03-28T21:19:10.415Z,8.20
2023-03-28T21:21:38.092Z,8.20
2023-03-28T21:24:07.796Z,8.20
2023-03-28T21:26:36.256Z,8.20
2023-03-28T21:29:04.033Z,8.20
2023-03-28T21:31:32.246Z,8.20
2023-03-28T21:33:59.813Z,8.10
2023-03-28T21:36:28.087Z,8.10
2023-03-28T21:38:57.178Z,8.10
2023-03-28T21:41:24.682Z,8.10
2023-03-28T21:43:54.209Z,8.10
2023-03-28T21:46:23.227Z,8.20
2023-03-28T21:48:51.125Z,8.10
2023-03-28T21:51:19.785Z,8.10
2023-03-28T21:53:47.575Z,8.10
2023-03-28T21:56:16.665Z,8.20
2023-03-28T21:58:50.600Z,8.10
2023-03-28T22:01:18.809Z,8.20
2023-03-28T22:03:48.236Z,8.20
2023-03-28T22:06:18.457Z,8.20
2023-03-28T22:08:52.411Z,8.20
2023-03-28T22:11:28.462Z,8.30
2023-03-28T22:14:05.190Z,8.30
2023-03-28T22:16:38.995Z,8.30
2023-03-28T22:19:11.497Z,8.30
2023-03-28T22:21:39.489Z,8.30
2023-03-28T22:24:13.546Z,8.30
2023-03-28T22:26:44.771Z,8.40
2023-03-28T22:29:17.715Z,8.40
2023-03-28T22:31:45.338Z,8.50
2023-03-28T22:34:14.408Z,8.50
2023-03-28T22:36:43.347Z,8.50
2023-03-28T22:39:18.013Z,8.50
2023-03-28T22:41:49.443Z,8.50
2023-03-28T22:44:17.777Z,8.50
2023-03-28T22:46:46.647Z,8.50
2023-03-28T22:49:22.346Z,8.60
2023-03-28T22:51:53.091Z,8.60
2023-03-28T22:54:22.880Z,8.60
2023-03-28T22:56:51.019Z,8.60
2023-03-28T22:59:18.496Z,8.60
2023-03-28T23:01:46.847Z,8.60
2023-03-28T23:04:14.794Z,8.60
2023-03-28T23:06:49.207Z,8.60
2023-03-28T23:09:18.881Z,8.60
2023-03-28T23:11:46.524Z,8.60
2023-03-28T23:14:14.852Z,8.70
2023-03-28T23:16:44.080Z,8.70
2023-03-28T23:19:12.188Z,8.70
2023-03-28T23:21:41.763Z,8.70
2023-03-28T23:24:18.174Z,8.70
2023-03-28T23:26:45.936Z,8.70
2023-03-28T23:29:13.754Z,8.70
2023-03-28T23:31:41.519Z,8.70
2023-03-28T23:34:09.062Z,8.70
2023-03-28T23:36:40.291Z,8.70
2023-03-28T23:39:11.538Z,8.70
2023-03-28T23:41:40.053Z,8.70
2023-03-28T23:44:08.297Z,8.80
2023-03-28T23:46:36.147Z,8.70
2023-03-28T23:49:03.728Z,8.80
2023-03-28T23:51:31.733Z,8.80
2023-03-28T23:54:05.236Z,8.80
2023-03-28T23:56:41.320Z,8.80
2023-03-28T23:59:09.048Z,8.80
